createdAt,value
2022-08-17T00:00:44.085Z,22.22
2022-08-17T00:03:15.038Z,22.42
2022-08-17T00:05:47.863Z,22.52
2022-08-17T00:08:20.145Z,22.45
2022-08-17T00:10:49.410Z,22.46
2022-08-17T00:13:23.772Z,22.41
2022-08-17T00:15:57.905Z,22.40
2022-08-17T00:19:04.175Z,22.35
2022-08-17T00:21:16.465Z,22.23
2022-08-17T00:23:52.707Z,22.14
2022-08-17T00:26:44.543Z,22.22
2022-08-17T00:29:20.101Z,21.92
2022-08-17T00:31:50.509Z,21.80
2022-08-17T00:34:19.642Z,21.99
2022-08-17T00:36:48.083Z,21.84
2022-08-17T00:39:16.606Z,21.96
2022-08-17T00:41:44.948Z,21.86
2022-08-17T00:44:13.232Z,21.77
2022-08-17T00:46:44.920Z,21.86
2022-08-17T00:49:19.306Z,21.98
2022-08-17T00:51:51.655Z,21.84
2022-08-17T00:54:23.569Z,21.89
2022-08-17T00:56:56.159Z,21.82
2022-08-17T00:59:31.911Z,21.67
2022-08-17T01:02:01.788Z,21.63
2022-08-17T01:04:33.345Z,21.61
2022-08-17T01:07:03.473Z,21.65
2022-08-17T01:09:33.340Z,21.52
2022-08-17T01:12:01.994Z,21.14
2022-08-17T01:14:30.342Z,21.51
2022-08-17T01:17:00.154Z,21.19
2022-08-17T01:19:35.801Z,20.96
2022-08-17T01:22:17.770Z,20.66
2022-08-17T01:24:53.428Z,20.71
2022-08-17T01:27:22.192Z,20.79
2022-08-17T01:29:58.699Z,20.72
2022-08-17T01:32:28.064Z,20.89
2022-08-17T01:34:58.420Z,21.02
2022-08-17T01:37:37.211Z,20.92
2022-08-17T01:40:13.972Z,20.76
2022-08-17T01:42:47.707Z,20.78
2022-08-17T01:45:22.964Z,21.05
2022-08-17T01:47:52.465Z,20.83
2022-08-17T01:50:24.736Z,20.63
2022-08-17T01:53:03.977Z,20.50
2022-08-17T01:55:39.525Z,20.43
2022-08-17T01:58:09.746Z,20.66
2022-08-17T02:00:59.432Z,20.57
2022-08-17T02:03:28.040Z,20.69
2022-08-17T02:05:57.130Z,20.66
2022-08-17T02:08:37.352Z,20.49
2022-08-17T02:11:12.236Z,20.62
2022-08-17T02:13:41.098Z,20.54
2022-08-17T02:16:09.589Z,20.71
2022-08-17T02:18:38.110Z,20.78
2022-08-17T02:21:07.957Z,20.81
2022-08-17T02:23:43.636Z,20.52
2022-08-17T02:26:26.071Z,20.67
2022-08-17T02:28:55.712Z,20.78
2022-08-17T02:31:24.278Z,20.68
2022-08-17T02:34:05.153Z,20.71
2022-08-17T02:36:35.193Z,20.89
2022-08-17T02:39:09.621Z,20.66
2022-08-17T02:41:38.559Z,20.70
2022-08-17T02:44:07.814Z,20.66
2022-08-17T02:46:36.950Z,20.64
2022-08-17T02:49:06.109Z,20.70
2022-08-17T02:51:35.242Z,20.76
2022-08-17T02:54:40.210Z,20.75
2022-08-17T02:56:53.623Z,20.55
2022-08-17T02:59:22.407Z,20.60
2022-08-17T03:01:50.819Z,20.63
2022-08-17T03:04:19.204Z,20.62
2022-08-17T03:06:47.748Z,20.78
2022-08-17T03:09:17.798Z,20.92
2022-08-17T03:11:46.171Z,21.03
2022-08-17T03:14:15.436Z,21.12
2022-08-17T03:16:43.794Z,21.18
2022-08-17T03:19:12.562Z,21.30
2022-08-17T03:21:40.893Z,21.22
2022-08-17T03:24:09.795Z,21.27
2022-08-17T03:26:40.080Z,21.23
2022-08-17T03:29:08.667Z,21.24
2022-08-17T03:31:37.422Z,21.20
2022-08-17T03:34:06.143Z,21.28
2022-08-17T03:36:36.102Z,21.32
2022-08-17T03:39:05.131Z,21.12
2022-08-17T03:41:33.687Z,20.94
2022-08-17T03:44:03.748Z,21.10
2022-08-17T03:46:49.533Z,21.00
2022-08-17T03:49:35.108Z,20.82
2022-08-17T03:52:20.954Z,20.84
2022-08-17T03:55:06.812Z,20.93
2022-08-17T03:57:35.225Z,20.92
2022-08-17T04:00:07.921Z,21.06
2022-08-17T04:02:41.758Z,20.98
2022-08-17T04:05:10.698Z,20.84
2022-08-17T04:07:39.352Z,20.82
2022-08-17T04:10:09.170Z,20.82
2022-08-17T04:12:47.780Z,21.02
2022-08-17T04:15:18.526Z,21.14
2022-08-17T04:17:46.979Z,21.30
2022-08-17T04:20:18.896Z,20.94
2022-08-17T04:22:59.237Z,21.01
2022-08-17T04:25:29.168Z,20.60
2022-08-17T04:27:58.462Z,20.59
2022-08-17T04:30:29.491Z,20.68
2022-08-17T04:33:06.358Z,20.36
2022-08-17T04:35:39.136Z,20.50
2022-08-17T04:38:09.470Z,20.79
2022-08-17T04:40:55.546Z,20.80
2022-08-17T04:43:27.264Z,20.85
2022-08-17T04:46:00.536Z,20.83
2022-08-17T04:48:36.129Z,20.93
2022-08-17T04:51:10.383Z,21.06
2022-08-17T04:53:41.202Z,21.18
2022-08-17T04:56:16.064Z,21.34
2022-08-17T04:58:46.296Z,21.49
2022-08-17T05:01:17.000Z,21.42
2022-08-17T05:03:52.565Z,21.50
2022-08-17T05:06:21.067Z,21.58
2022-08-17T05:08:49.750Z,21.75
2022-08-17T05:11:18.790Z,21.76
2022-08-17T05:13:50.027Z,21.78
2022-08-17T05:16:21.001Z,21.87
2022-08-17T05:18:50.294Z,21.50
2022-08-17T05:21:19.801Z,21.36
2022-08-17T05:23:54.745Z,21.49
2022-08-17T05:26:27.275Z,21.32
2022-08-17T05:29:00.618Z,21.44
2022-08-17T05:31:33.117Z,21.27
2022-08-17T05:34:01.657Z,21.22
2022-08-17T05:36:42.300Z,21.17
2022-08-17T05:39:15.930Z,20.93
2022-08-17T05:41:49.150Z,21.17
2022-08-17T05:44:17.924Z,21.45
2022-08-17T05:46:52.004Z,21.28
2022-08-17T05:49:28.215Z,20.94
2022-08-17T05:52:23.980Z,20.87
2022-08-17T05:55:06.860Z,21.20
2022-08-17T05:58:01.231Z,21.18
2022-08-17T06:00:42.094Z,21.33
2022-08-17T06:03:41.100Z,21.71
2022-08-17T06:06:31.274Z,21.85
2022-08-17T06:09:27.810Z,22.01
2022-08-17T06:12:19.064Z,21.83
2022-08-17T06:15:07.341Z,21.63
2022-08-17T06:17:37.292Z,22.00
2022-08-17T06:20:13.237Z,22.04
2022-08-17T06:22:48.341Z,21.57
2022-08-17T06:25:24.559Z,21.46
2022-08-17T06:27:59.040Z,21.36
2022-08-17T06:30:35.748Z,21.22
2022-08-17T06:33:24.910Z,21.31
2022-08-17T06:36:09.266Z,21.48
2022-08-17T06:38:53.676Z,21.34
2022-08-17T06:41:31.434Z,21.91
2022-08-17T06:44:42.320Z,21.85
2022-08-17T06:47:15.590Z,21.87
2022-08-17T06:50:09.027Z,21.82
2022-08-17T06:52:48.474Z,21.83
2022-08-17T06:55:26.495Z,22.27
2022-08-17T06:58:00.000Z,22.29
2022-08-17T07:00:42.131Z,21.96
2022-08-17T07:03:20.822Z,22.03
2022-08-17T07:05:54.805Z,21.96
2022-08-17T07:08:35.088Z,22.11
2022-08-17T07:11:10.966Z,21.69
2022-08-17T07:13:51.404Z,21.87
2022-08-17T07:16:25.877Z,21.43
2022-08-17T07:18:56.740Z,21.70
2022-08-17T07:21:46.004Z,21.59
2022-08-17T07:24:33.067Z,21.92
2022-08-17T07:27:21.858Z,22.16
2022-08-17T07:29:54.790Z,22.25
2022-08-17T07:32:31.501Z,22.36
2022-08-17T07:35:17.841Z,22.38
2022-08-17T07:37:54.419Z,21.91
2022-08-17T07:40:29.850Z,21.88
2022-08-17T07:43:24.087Z,22.14
2022-08-17T07:46:32.895Z,22.05
2022-08-17T07:49:34.756Z,21.90
2022-08-17T07:52:48.394Z,22.04
2022-08-17T07:54:57.469Z,21.98
2022-08-17T07:57:35.531Z,21.79
2022-08-17T08:00:31.413Z,21.86
2022-08-17T08:03:21.872Z,21.80
2022-08-17T08:05:57.799Z,22.12
2022-08-17T08:08:32.729Z,21.93
2022-08-17T08:11:08.819Z,21.93
2022-08-17T08:13:45.141Z,21.98
2022-08-17T08:16:29.209Z,22.27
2022-08-17T08:19:01.328Z,22.33
2022-08-17T08:21:47.553Z,22.18
2022-08-17T08:24:52.362Z,22.15
2022-08-17T08:27:36.432Z,22.22
2022-08-17T08:30:11.412Z,22.10
2022-08-17T08:32:58.128Z,22.61
2022-08-17T08:35:34.220Z,21.96
2022-08-17T08:38:15.729Z,21.75
2022-08-17T08:41:08.909Z,22.16
2022-08-17T08:43:52.848Z,21.93
2022-08-17T08:46:31.952Z,21.99
2022-08-17T08:50:02.503Z,21.37
2022-08-17T08:53:13.163Z,21.70
2022-08-17T08:55:52.945Z,21.23
2022-08-17T08:58:31.664Z,21.28
2022-08-17T09:01:19.308Z,21.42
2022-08-17T09:04:25.517Z,21.34
2022-08-17T09:07:16.240Z,21.17
2022-08-17T09:10:00.385Z,21.18
2022-08-17T09:12:40.919Z,20.76
2022-08-17T09:15:19.378Z,20.69
2022-08-17T09:18:21.278Z,20.46
2022-08-17T09:20:52.976Z,20.70
2022-08-17T09:23:33.831Z,20.90
2022-08-17T09:26:10.736Z,20.95
2022-08-17T09:28:44.744Z,20.92
2022-08-17T09:31:21.413Z,21.10
2022-08-17T09:33:51.489Z,20.91
2022-08-17T09:36:29.482Z,20.78
2022-08-17T09:39:04.215Z,21.20
2022-08-17T09:41:49.214Z,21.31
2022-08-17T09:44:27.833Z,21.04
2022-08-17T09:47:06.864Z,21.21
2022-08-17T09:49:42.564Z,20.88
2022-08-17T09:52:19.961Z,20.57
2022-08-17T09:54:50.827Z,20.32
2022-08-17T09:57:38.749Z,20.30
2022-08-17T10:00:23.739Z,20.04
2022-08-17T10:03:20.555Z,20.03
2022-08-17T10:05:57.660Z,20.24
2022-08-17T10:08:37.647Z,20.23
2022-08-17T10:11:33.537Z,20.01
2022-08-17T10:14:36.535Z,20.09
2022-08-17T10:17:08.970Z,20.07
2022-08-17T10:19:44.148Z,20.22
2022-08-17T10:22:41.950Z,20.51
2022-08-17T10:25:49.092Z,20.54
2022-08-17T10:28:29.764Z,20.57
2022-08-17T10:31:33.230Z,20.80
2022-08-17T10:34:18.957Z,20.75
2022-08-17T10:36:56.396Z,20.36
2022-08-17T10:39:36.053Z,20.48
2022-08-17T10:42:36.405Z,20.53
2022-08-17T10:45:17.781Z,20.44
2022-08-17T10:48:05.843Z,20.16
2022-08-17T10:50:50.343Z,20.31
2022-08-17T10:54:01.385Z,20.74
2022-08-17T10:56:50.309Z,20.85
2022-08-17T10:59:53.207Z,20.86
2022-08-17T11:02:31.848Z,21.36
2022-08-17T11:05:45.881Z,21.13
2022-08-17T11:08:40.060Z,21.14
2022-08-17T11:11:36.084Z,21.16
2022-08-17T11:14:24.190Z,21.33
2022-08-17T11:17:25.523Z,21.01
2022-08-17T11:20:09.011Z,21.22
2022-08-17T11:23:32.519Z,21.03
2022-08-17T11:26:08.555Z,21.22
2022-08-17T11:28:52.681Z,21.38
2022-08-17T11:31:39.973Z,21.58
2022-08-17T11:34:20.013Z,21.20
2022-08-17T11:37:42.796Z,21.37
2022-08-17T11:40:41.112Z,21.74
2022-08-17T11:43:47.814Z,21.25
2022-08-17T11:46:51.033Z,21.50
2022-08-17T11:50:01.466Z,21.33
2022-08-17T11:52:44.530Z,21.37
2022-08-17T11:56:04.532Z,21.25
2022-08-17T11:58:40.959Z,21.15
2022-08-17T12:01:13.842Z,21.06
2022-08-17T12:03:55.385Z,21.18
2022-08-17T12:06:42.390Z,20.58
2022-08-17T12:09:18.473Z,20.72
2022-08-17T12:12:11.965Z,20.67
2022-08-17T12:17:39.279Z,20.28
2022-08-17T12:20:16.282Z,20.21
2022-08-17T12:22:57.502Z,20.34
2022-08-17T12:25:34.742Z,20.60
2022-08-17T12:28:06.852Z,20.73
2022-08-17T12:30:38.462Z,20.83
2022-08-17T12:33:25.053Z,20.46
2022-08-17T12:36:00.157Z,20.85
2022-08-17T12:38:32.955Z,20.78
2022-08-17T12:41:25.350Z,20.65
2022-08-17T12:44:01.737Z,21.07
2022-08-17T12:46:34.787Z,21.02
2022-08-17T12:49:22.610Z,20.78
2022-08-17T12:51:53.936Z,20.95
2022-08-17T12:54:31.375Z,21.38
2022-08-17T12:57:06.117Z,21.92
2022-08-17T12:59:34.476Z,22.09
2022-08-17T13:02:03.303Z,22.02
2022-08-17T13:04:33.123Z,22.29
2022-08-17T13:07:01.430Z,21.64
2022-08-17T13:09:40.374Z,21.77
2022-08-17T13:12:09.591Z,21.84
2022-08-17T13:14:37.972Z,21.51
2022-08-17T13:17:12.665Z,21.62
2022-08-17T13:19:50.418Z,21.78
2022-08-17T13:22:23.730Z,21.56
2022-08-17T13:24:57.895Z,21.48
2022-08-17T13:27:30.631Z,21.35
2022-08-17T13:30:03.149Z,21.72
2022-08-17T13:32:44.117Z,21.63
2022-08-17T13:35:44.257Z,21.69
2022-08-17T13:38:43.969Z,21.26
2022-08-17T13:41:31.162Z,21.44
2022-08-17T13:43:59.738Z,21.59
2022-08-17T13:46:32.672Z,21.52
2022-08-17T13:49:06.604Z,21.94
2022-08-17T13:51:42.637Z,22.19
2022-08-17T13:54:26.865Z,22.20
2022-08-17T13:57:03.788Z,22.86
2022-08-17T13:59:55.268Z,23.08
2022-08-17T14:02:28.776Z,23.44
2022-08-17T14:05:00.434Z,23.76
2022-08-17T14:07:34.158Z,23.65
2022-08-17T14:10:08.745Z,23.28
2022-08-17T14:12:42.575Z,23.64
2022-08-17T14:15:12.933Z,24.08
2022-08-17T14:17:41.322Z,23.83
2022-08-17T14:20:13.047Z,24.05
2022-08-17T14:22:45.936Z,24.08
2022-08-17T14:25:17.536Z,24.07
2022-08-17T14:27:53.158Z,24.58
2022-08-17T14:30:25.713Z,24.97
2022-08-17T14:32:58.078Z,25.43
2022-08-17T14:35:29.601Z,25.59
2022-08-17T14:37:58.204Z,24.82
2022-08-17T14:40:28.027Z,24.91
2022-08-17T14:42:58.818Z,24.92
2022-08-17T14:45:32.698Z,24.82
2022-08-17T14:48:05.823Z,24.98
2022-08-17T14:50:36.023Z,24.73
2022-08-17T14:53:06.207Z,24.84
2022-08-17T14:55:35.685Z,25.26
2022-08-17T14:58:05.826Z,25.45
2022-08-17T15:00:35.068Z,25.55
2022-08-17T15:03:04.266Z,25.16
2022-08-17T15:05:36.954Z,24.76
2022-08-17T15:08:06.906Z,24.25
2022-08-17T15:10:36.628Z,24.73
2022-08-17T15:13:17.075Z,24.99
2022-08-17T15:15:45.846Z,25.04
2022-08-17T15:18:14.465Z,25.21
2022-08-17T15:20:44.721Z,24.87
2022-08-17T15:23:15.104Z,25.03
2022-08-17T15:25:44.064Z,25.50
2022-08-17T15:28:14.020Z,25.09
2022-08-17T15:30:44.760Z,25.21
2022-08-17T15:33:18.701Z,25.17
2022-08-17T15:35:52.001Z,25.38
2022-08-17T15:38:22.140Z,25.49
2022-08-17T15:40:53.040Z,25.31
2022-08-17T15:43:27.926Z,24.99
2022-08-17T15:46:01.178Z,24.41
2022-08-17T15:48:42.095Z,24.94
2022-08-17T15:51:14.668Z,24.69
2022-08-17T15:53:44.112Z,24.64
2022-08-17T15:56:13.698Z,24.33
2022-08-17T15:58:46.619Z,23.93
2022-08-17T16:01:41.869Z,24.11
2022-08-17T16:04:26.722Z,24.03
2022-08-17T16:06:56.493Z,24.52
2022-08-17T16:09:24.813Z,24.87
2022-08-17T16:11:55.517Z,24.97
2022-08-17T16:14:32.418Z,25.21
2022-08-17T16:17:03.471Z,25.50
2022-08-17T16:19:32.522Z,25.40
2022-08-17T16:22:01.359Z,25.17
2022-08-17T16:24:30.161Z,24.98
2022-08-17T16:26:58.681Z,24.82
2022-08-17T16:29:29.573Z,24.93
2022-08-17T16:31:59.003Z,24.99
2022-08-17T16:34:27.616Z,24.98
2022-08-17T16:36:56.731Z,25.00
2022-08-17T16:39:27.170Z,24.71
2022-08-17T16:41:56.190Z,24.96
2022-08-17T16:44:25.956Z,25.02
2022-08-17T16:46:57.503Z,25.21
2022-08-17T16:49:37.451Z,25.23
2022-08-17T16:52:09.692Z,24.68
2022-08-17T16:54:44.101Z,24.62
2022-08-17T16:57:17.472Z,24.66
2022-08-17T16:59:50.269Z,24.69
2022-08-17T17:02:27.509Z,24.81
2022-08-17T17:05:03.919Z,24.36
2022-08-17T17:07:50.754Z,24.37
2022-08-17T17:10:27.601Z,24.17
2022-08-17T17:13:01.965Z,24.16
2022-08-17T17:15:47.695Z,24.25
2022-08-17T17:18:18.010Z,24.20
2022-08-17T17:20:55.729Z,24.33
2022-08-17T17:23:42.343Z,24.00
2022-08-17T17:26:38.111Z,24.23
2022-08-17T17:29:21.753Z,24.43
2022-08-17T17:32:04.675Z,24.44
2022-08-17T17:34:39.732Z,24.06
2022-08-17T17:37:18.277Z,24.21
2022-08-17T17:39:52.412Z,24.00
2022-08-17T17:42:28.151Z,23.71
2022-08-17T17:45:07.323Z,23.61
2022-08-17T17:47:37.416Z,23.45
2022-08-17T17:50:09.171Z,23.33
2022-08-17T17:52:50.567Z,23.08
2022-08-17T17:55:55.691Z,23.06
2022-08-17T17:58:40.517Z,23.02
2022-08-17T18:01:26.383Z,23.07
2022-08-17T18:04:17.631Z,23.05
2022-08-17T18:07:19.243Z,22.98
2022-08-17T18:10:19.573Z,23.10
2022-08-17T18:13:10.236Z,23.00
2022-08-17T18:15:45.289Z,23.02
2022-08-17T18:18:38.565Z,23.19
2022-08-17T18:21:16.328Z,22.89
2022-08-17T18:23:56.493Z,22.68
2022-08-17T18:26:50.593Z,22.59
2022-08-17T18:29:35.831Z,22.49
2022-08-17T18:32:34.133Z,22.37
2022-08-17T18:35:28.581Z,22.40
2022-08-17T18:38:20.382Z,22.43
2022-08-17T18:41:01.497Z,22.40
2022-08-17T18:43:44.090Z,22.30
2022-08-17T18:46:33.238Z,22.13
2022-08-17T18:49:06.679Z,22.16
2022-08-17T18:51:42.073Z,22.09
2022-08-17T18:54:21.155Z,22.10
2022-08-17T18:56:58.881Z,22.02
2022-08-17T18:59:41.908Z,22.08
2022-08-17T19:02:45.947Z,22.19
2022-08-17T19:05:32.004Z,22.22
2022-08-17T19:08:22.730Z,22.34
2022-08-17T19:10:55.054Z,22.25
2022-08-17T19:13:29.844Z,22.28
2022-08-17T19:16:13.847Z,22.31
2022-08-17T19:18:52.366Z,22.35
2022-08-17T19:21:26.717Z,22.36
2022-08-17T19:24:01.582Z,22.44
2022-08-17T19:26:53.853Z,22.48
2022-08-17T19:29:32.152Z,22.59
2022-08-17T19:32:03.286Z,22.59
2022-08-17T19:34:35.618Z,22.67
2022-08-17T19:37:10.756Z,22.45
2022-08-17T19:39:50.840Z,22.30
2022-08-17T19:42:32.392Z,22.10
2022-08-17T19:45:13.936Z,22.14
2022-08-17T19:47:56.482Z,22.15
2022-08-17T19:50:41.626Z,22.29
2022-08-17T19:53:36.859Z,22.26
2022-08-17T19:56:24.134Z,22.25
2022-08-17T19:59:02.454Z,22.19
2022-08-17T20:01:41.449Z,22.24
2022-08-17T20:04:19.104Z,22.20
2022-08-17T20:06:50.412Z,22.20
2022-08-17T20:09:33.863Z,22.20
2022-08-17T20:12:08.755Z,22.22
2022-08-17T20:14:53.545Z,22.10
2022-08-17T20:17:32.276Z,22.01
2022-08-17T20:20:27.258Z,21.94
2022-08-17T20:23:06.809Z,21.74
2022-08-17T20:25:43.806Z,21.88
2022-08-17T20:28:23.812Z,21.73
2022-08-17T20:30:53.161Z,21.55
2022-08-17T20:33:29.785Z,21.65
2022-08-17T20:36:17.626Z,21.59
2022-08-17T20:38:50.301Z,21.64
2022-08-17T20:41:22.519Z,21.63
2022-08-17T20:44:02.530Z,21.35
2022-08-17T20:46:56.429Z,21.29
2022-08-17T20:49:41.498Z,21.12
2022-08-17T20:52:15.478Z,20.90
2022-08-17T20:54:51.514Z,20.73
2022-08-17T20:57:48.680Z,20.47
2022-08-17T21:00:45.678Z,20.39
2022-08-17T21:03:52.272Z,20.49
2022-08-17T21:06:26.621Z,20.56
2022-08-17T21:08:59.899Z,20.37
2022-08-17T21:12:04.527Z,19.95
2022-08-17T21:14:58.726Z,19.76
2022-08-17T21:17:48.192Z,19.95
2022-08-17T21:20:42.438Z,20.08
2022-08-17T21:23:30.575Z,20.10
2022-08-17T21:26:28.086Z,20.25
2022-08-17T21:29:31.397Z,20.07
2022-08-17T21:32:30.540Z,20.16
2022-08-17T21:35:30.067Z,20.00
2022-08-17T21:38:05.124Z,19.99
2022-08-17T21:40:36.320Z,19.93
2022-08-17T21:43:23.518Z,19.92
2022-08-17T21:46:04.305Z,19.96
2022-08-17T21:48:41.988Z,19.72
2022-08-17T21:51:17.664Z,19.80
2022-08-17T21:53:50.162Z,19.47
2022-08-17T21:56:25.683Z,19.38
2022-08-17T21:59:02.396Z,19.50
2022-08-17T22:01:35.101Z,19.23
2022-08-17T22:04:16.972Z,19.18
2022-08-17T22:06:56.879Z,19.37
2022-08-17T22:09:28.961Z,19.34
2022-08-17T22:12:08.432Z,19.46
2022-08-17T22:14:52.486Z,19.52
2022-08-17T22:17:25.527Z,19.71
2022-08-17T22:19:57.429Z,19.81
2022-08-17T22:22:33.040Z,19.85
2022-08-17T22:25:06.179Z,19.91
2022-08-17T22:27:54.316Z,19.93
2022-08-17T22:30:37.316Z,19.96
2022-08-17T22:33:46.868Z,19.83
2022-08-17T22:36:29.691Z,19.84
2022-08-17T22:39:01.040Z,19.71
2022-08-17T22:41:42.428Z,19.69
2022-08-17T22:44:29.617Z,19.60
2022-08-17T22:47:02.973Z,19.63
2022-08-17T22:49:38.507Z,19.60
2022-08-17T22:52:34.055Z,18.95
2022-08-17T22:55:39.519Z,19.03
2022-08-17T22:58:29.725Z,18.88
2022-08-17T23:01:28.305Z,18.68
2022-08-17T23:03:59.325Z,18.65
2022-08-17T23:06:27.903Z,18.77
2022-08-17T23:08:57.985Z,18.74
2022-08-17T23:11:36.645Z,18.88
2022-08-17T23:14:19.067Z,19.09
2022-08-17T23:16:50.295Z,19.29
2022-08-17T23:19:22.717Z,19.38
2022-08-17T23:21:55.346Z,19.31
2022-08-17T23:24:26.911Z,19.33
2022-08-17T23:26:58.057Z,19.28
2022-08-17T23:29:29.214Z,19.14
2022-08-17T23:32:01.297Z,19.16
2022-08-17T23:34:30.420Z,19.28
2022-08-17T23:37:02.267Z,19.34
2022-08-17T23:39:31.361Z,19.38
2022-08-17T23:42:01.881Z,19.30
2022-08-17T23:44:31.009Z,19.06
2022-08-17T23:47:02.420Z,18.91
2022-08-17T23:49:32.212Z,18.88
2022-08-17T23:52:02.495Z,18.70
2022-08-17T23:54:34.385Z,18.78
2022-08-17T23:57:04.803Z,18.64
2022-08-17T23:59:33.975Z,18.85
